sensor_id;sensor_type;location;lat;lon;timestamp;temperature;humidity
22145;DHT22;11238;48.730;11.566;2022-11-20T00:42:33;3.00;99.90
22145;DHT22;11238;48.730;11.566;2022-11-20T00:44:59;3.00;99.90
22145;DHT22;11238;48.730;11.566;2022-11-20T00:47:25;3.00;99.90
22145;DHT22;11238;48.730;11.566;2022-11-20T00:49:50;3.00;99.90
22145;DHT22;11238;48.730;11.566;2022-11-20T00:52:16;3.00;99.90
22145;DHT22;11238;48.730;11.566;2022-11-20T00:54:42;3.00;99.90
22145;DHT22;11238;48.730;11.566;2022-11-20T00:57:07;3.00;99.90
22145;DHT22;11238;48.730;11.566;2022-11-20T00:59:34;3.00;99.90
22145;DHT22;11238;48.730;11.566;2022-11-20T01:02:00;3.00;99.90
22145;DHT22;11238;48.730;11.566;2022-11-20T01:04:25;3.00;99.90
22145;DHT22;11238;48.730;11.566;2022-11-20T01:06:51;3.10;99.90
22145;DHT22;11238;48.730;11.566;2022-11-20T01:09:17;3.10;99.90
22145;DHT22;11238;48.730;11.566;2022-11-20T01:11:44;3.10;99.90
22145;DHT22;11238;48.730;11.566;2022-11-20T01:14:13;3.10;99.90
22145;DHT22;11238;48.730;11.566;2022-11-20T01:16:42;3.10;99.90
22145;DHT22;11238;48.730;11.566;2022-11-20T01:19:11;3.10;99.90
22145;DHT22;11238;48.730;11.566;2022-11-20T01:21:40;3.10;99.90
22145;DHT22;11238;48.730;11.566;2022-11-20T01:24:08;3.10;99.90
22145;DHT22;11238;48.730;11.566;2022-11-20T01:26:36;3.10;99.90
22145;DHT22;11238;48.730;11.566;2022-11-20T01:29:04;3.20;99.90
22145;DHT22;11238;48.730;11.566;2022-11-20T01:31:32;3.20;99.90
22145;DHT22;11238;48.730;11.566;2022-11-20T01:34:02;3.20;99.90
22145;DHT22;11238;48.730;11.566;2022-11-20T01:36:31;3.20;99.90
22145;DHT22;11238;48.730;11.566;2022-11-20T01:38:59;3.20;99.90
22145;DHT22;11238;48.730;11.566;2022-11-20T01:41:29;3.20;99.90
22145;DHT22;11238;48.730;11.566;2022-11-20T01:44:15;3.20;99.90
22145;DHT22;11238;48.730;11.566;2022-11-20T01:46:58;3.10;99.90
22145;DHT22;11238;48.730;11.566;2022-11-20T01:49:36;3.00;99.90
22145;DHT22;11238;48.730;11.566;2022-11-20T01:52:06;3.00;99.90
22145;DHT22;11238;48.730;11.566;2022-11-20T01:54:40;3.00;99.90
22145;DHT22;11238;48.730;11.566;2022-11-20T01:57:09;3.00;99.90
22145;DHT22;11238;48.730;11.566;2022-11-20T01:59:40;3.00;99.90
22145;DHT22;11238;48.730;11.566;2022-11-20T02:02:07;3.00;99.90
22145;DHT22;11238;48.730;11.566;2022-11-20T02:04:33;3.10;99.90
22145;DHT22;11238;48.730;11.566;2022-11-20T02:07:00;3.10;99.90
22145;DHT22;11238;48.730;11.566;2022-11-20T02:09:27;3.10;99.90
22145;DHT22;11238;48.730;11.566;2022-11-20T02:11:53;3.10;99.90
22145;DHT22;11238;48.730;11.566;2022-11-20T02:14:19;3.10;99.90
22145;DHT22;11238;48.730;11.566;2022-11-20T02:16:48;3.10;99.90
22145;DHT22;11238;48.730;11.566;2022-11-20T02:19:27;3.00;99.90
22145;DHT22;11238;48.730;11.566;2022-11-20T02:24:26;3.00;99.90
22145;DHT22;11238;48.730;11.566;2022-11-20T02:27:24;3.10;99.90
22145;DHT22;11238;48.730;11.566;2022-11-20T02:30:04;3.10;99.90
22145;DHT22;11238;48.730;11.566;2022-11-20T02:32:38;3.10;99.90
22145;DHT22;11238;48.730;11.566;2022-11-20T02:35:09;3.10;99.90
22145;DHT22;11238;48.730;11.566;2022-11-20T02:37:38;3.10;99.90
22145;DHT22;11238;48.730;11.566;2022-11-20T02:40:06;3.10;99.90
22145;DHT22;11238;48.730;11.566;2022-11-20T02:42:32;3.10;99.90
22145;DHT22;11238;48.730;11.566;2022-11-20T02:44:58;3.10;99.90
22145;DHT22;11238;48.730;11.566;2022-11-20T02:47:24;3.00;99.90
22145;DHT22;11238;48.730;11.566;2022-11-20T02:49:49;3.10;99.90
22145;DHT22;11238;48.730;11.566;2022-11-20T02:52:15;3.10;99.90
22145;DHT22;11238;48.730;11.566;2022-11-20T02:54:41;3.10;99.90
22145;DHT22;11238;48.730;11.566;2022-11-20T02:57:06;3.10;99.90
22145;DHT22;11238;48.730;11.566;2022-11-20T02:59:32;3.10;99.90
22145;DHT22;11238;48.730;11.566;2022-11-20T03:01:59;3.10;99.90
22145;DHT22;11238;48.730;11.566;2022-11-20T03:04:25;3.20;99.90
22145;DHT22;11238;48.730;11.566;2022-11-20T03:06:51;3.20;99.90
22145;DHT22;11238;48.730;11.566;2022-11-20T03:09:17;3.30;99.90
22145;DHT22;11238;48.730;11.566;2022-11-20T03:11:42;3.30;99.90
22145;DHT22;11238;48.730;11.566;2022-11-20T03:14:08;3.40;99.90
22145;DHT22;11238;48.730;11.566;2022-11-20T03:16:34;3.40;99.90
22145;DHT22;11238;48.730;11.566;2022-11-20T03:19:00;3.40;99.90
22145;DHT22;11238;48.730;11.566;2022-11-20T03:21:27;3.40;99.90
22145;DHT22;11238;48.730;11.566;2022-11-20T03:23:54;3.40;99.90
22145;DHT22;11238;48.730;11.566;2022-11-20T03:26:23;3.40;99.90
22145;DHT22;11238;48.730;11.566;2022-11-20T03:28:52;3.40;99.90
22145;DHT22;11238;48.730;11.566;2022-11-20T03:31:20;3.40;99.90
22145;DHT22;11238;48.730;11.566;2022-11-20T03:33:47;3.40;99.90
22145;DHT22;11238;48.730;11.566;2022-11-20T03:36:15;3.50;99.90
22145;DHT22;11238;48.730;11.566;2022-11-20T03:38:41;3.50;99.90
22145;DHT22;11238;48.730;11.566;2022-11-20T03:41:16;3.50;99.90
22145;DHT22;11238;48.730;11.566;2022-11-20T03:43:42;3.50;99.90
22145;DHT22;11238;48.730;11.566;2022-11-20T03:46:07;3.50;99.90
22145;DHT22;11238;48.730;11.566;2022-11-20T03:48:34;3.50;99.90
22145;DHT22;11238;48.730;11.566;2022-11-20T03:51:17;3.60;99.90
22145;DHT22;11238;48.730;11.566;2022-11-20T03:53:44;3.60;99.90
22145;DHT22;11238;48.730;11.566;2022-11-20T03:56:11;3.70;99.90
22145;DHT22;11238;48.730;11.566;2022-11-20T03:58:39;3.70;99.90
22145;DHT22;11238;48.730;11.566;2022-11-20T04:01:13;3.70;99.90
22145;DHT22;11238;48.730;11.566;2022-11-20T04:03:41;3.70;99.90
22145;DHT22;11238;48.730;11.566;2022-11-20T04:06:13;3.70;99.90
22145;DHT22;11238;48.730;11.566;2022-11-20T04:08:40;3.70;99.90
22145;DHT22;11238;48.730;11.566;2022-11-20T04:11:11;3.70;99.90
22145;DHT22;11238;48.730;11.566;2022-11-20T04:13:37;3.70;99.90
22145;DHT22;11238;48.730;11.566;2022-11-20T04:16:05;3.70;99.90
22145;DHT22;11238;48.730;11.566;2022-11-20T04:18:31;3.70;99.90
22145;DHT22;11238;48.730;11.566;2022-11-20T04:20:58;3.70;99.90
22145;DHT22;11238;48.730;11.566;2022-11-20T04:23:24;3.70;99.90
22145;DHT22;11238;48.730;11.566;2022-11-20T04:25:50;3.70;99.90
22145;DHT22;11238;48.730;11.566;2022-11-20T04:28:16;3.70;99.90
22145;DHT22;11238;48.730;11.566;2022-11-20T04:30:42;3.80;99.90
22145;DHT22;11238;48.730;11.566;2022-11-20T04:33:07;3.80;99.90
22145;DHT22;11238;48.730;11.566;2022-11-20T04:35:35;3.80;99.90
22145;DHT22;11238;48.730;11.566;2022-11-20T04:38:01;3.80;99.90
22145;DHT22;11238;48.730;11.566;2022-11-20T04:40:30;3.80;99.90
22145;DHT22;11238;48.730;11.566;2022-11-20T04:42:56;3.80;99.90
22145;DHT22;11238;48.730;11.566;2022-11-20T04:45:22;3.80;99.90
22145;DHT22;11238;48.730;11.566;2022-11-20T04:47:48;3.80;99.90
22145;DHT22;11238;48.730;11.566;2022-11-20T04:50:14;3.80;99.90
22145;DHT22;11238;48.730;11.566;2022-11-20T04:52:41;3.80;99.90
22145;DHT22;11238;48.730;11.566;2022-11-20T04:55:07;3.80;99.90
22145;DHT22;11238;48.730;11.566;2022-11-20T04:57:33;3.80;99.90
22145;DHT22;11238;48.730;11.566;2022-11-20T04:59:59;3.90;99.90
22145;DHT22;11238;48.730;11.566;2022-11-20T05:02:25;3.80;99.90
22145;DHT22;11238;48.730;11.566;2022-11-20T05:04:51;3.90;99.90
22145;DHT22;11238;48.730;11.566;2022-11-20T05:07:17;3.90;99.90
22145;DHT22;11238;48.730;11.566;2022-11-20T05:09:42;3.90;99.90
22145;DHT22;11238;48.730;11.566;2022-11-20T05:12:08;4.00;99.90
22145;DHT22;11238;48.730;11.566;2022-11-20T05:14:34;4.00;99.90
22145;DHT22;11238;48.730;11.566;2022-11-20T05:17:01;4.10;99.90
22145;DHT22;11238;48.730;11.566;2022-11-20T05:19:27;4.10;99.90
22145;DHT22;11238;48.730;11.566;2022-11-20T05:21:53;4.20;99.90
22145;DHT22;11238;48.730;11.566;2022-11-20T05:24:18;4.30;99.90
22145;DHT22;11238;48.730;11.566;2022-11-20T05:26:44;4.30;99.90
22145;DHT22;11238;48.730;11.566;2022-11-20T05:29:11;4.40;99.90
22145;DHT22;11238;48.730;11.566;2022-11-20T05:31:39;4.40;99.90
22145;DHT22;11238;48.730;11.566;2022-11-20T05:34:06;4.40;99.90
22145;DHT22;11238;48.730;11.566;2022-11-20T05:36:32;4.50;99.90
22145;DHT22;11238;48.730;11.566;2022-11-20T05:38:57;4.50;99.90
22145;DHT22;11238;48.730;11.566;2022-11-20T05:41:23;4.50;99.90
22145;DHT22;11238;48.730;11.566;2022-11-20T05:43:49;4.60;99.90
22145;DHT22;11238;48.730;11.566;2022-11-20T05:46:18;4.60;99.90
22145;DHT22;11238;48.730;11.566;2022-11-20T05:48:45;4.60;99.90
22145;DHT22;11238;48.730;11.566;2022-11-20T05:51:15;4.60;99.90
22145;DHT22;11238;48.730;11.566;2022-11-20T05:53:42;4.60;99.90
22145;DHT22;11238;48.730;11.566;2022-11-20T05:56:11;4.60;99.90
22145;DHT22;11238;48.730;11.566;2022-11-20T05:58:37;4.70;99.90
22145;DHT22;11238;48.730;11.566;2022-11-20T06:01:12;4.70;99.90
22145;DHT22;11238;48.730;11.566;2022-11-20T06:03:40;4.70;99.90
22145;DHT22;11238;48.730;11.566;2022-11-20T06:06:08;4.70;99.90
22145;DHT22;11238;48.730;11.566;2022-11-20T06:08:34;4.70;99.90
22145;DHT22;11238;48.730;11.566;2022-11-20T06:11:08;4.70;99.90
22145;DHT22;11238;48.730;11.566;2022-11-20T06:13:35;4.70;99.90
22145;DHT22;11238;48.730;11.566;2022-11-20T06:16:01;4.70;99.90
22145;DHT22;11238;48.730;11.566;2022-11-20T06:18:28;4.70;99.90
22145;DHT22;11238;48.730;11.566;2022-11-20T06:21:08;4.70;99.90
22145;DHT22;11238;48.730;11.566;2022-11-20T06:23:35;4.70;99.90
22145;DHT22;11238;48.730;11.566;2022-11-20T06:26:05;4.70;99.90
22145;DHT22;11238;48.730;11.566;2022-11-20T06:28:32;4.70;99.90
22145;DHT22;11238;48.730;11.566;2022-11-20T06:30:58;4.70;99.90
22145;DHT22;11238;48.730;11.566;2022-11-20T06:33:24;4.90;99.90
22145;DHT22;11238;48.730;11.566;2022-11-20T06:35:50;5.10;99.90
22145;DHT22;11238;48.730;11.566;2022-11-20T06:38:17;5.10;99.90
22145;DHT22;11238;48.730;11.566;2022-11-20T06:40:43;5.10;99.90
22145;DHT22;11238;48.730;11.566;2022-11-20T06:43:09;5.20;99.90
22145;DHT22;11238;48.730;11.566;2022-11-20T06:45:36;5.10;99.90
22145;DHT22;11238;48.730;11.566;2022-11-20T06:48:05;5.20;99.90
22145;DHT22;11238;48.730;11.566;2022-11-20T06:50:31;5.30;99.90
22145;DHT22;11238;48.730;11.566;2022-11-20T06:53:01;5.30;99.90
22145;DHT22;11238;48.730;11.566;2022-11-20T06:55:27;5.40;99.90
22145;DHT22;11238;48.730;11.566;2022-11-20T06:57:53;5.20;99.90
22145;DHT22;11238;48.730;11.566;2022-11-20T07:00:19;5.40;99.90
22145;DHT22;11238;48.730;11.566;2022-11-20T07:02:45;5.40;99.90
22145;DHT22;11238;48.730;11.566;2022-11-20T07:05:10;5.40;99.90
22145;DHT22;11238;48.730;11.566;2022-11-20T07:07:36;5.40;99.90
22145;DHT22;11238;48.730;11.566;2022-11-20T07:10:03;5.30;99.90
22145;DHT22;11238;48.730;11.566;2022-11-20T07:12:32;5.40;99.90
22145;DHT22;11238;48.730;11.566;2022-11-20T07:14:58;5.30;99.90
22145;DHT22;11238;48.730;11.566;2022-11-20T07:17:24;5.30;99.90
22145;DHT22;11238;48.730;11.566;2022-11-20T07:19:50;5.20;99.90
22145;DHT22;11238;48.730;11.566;2022-11-20T07:22:16;5.20;99.90
22145;DHT22;11238;48.730;11.566;2022-11-20T07:24:42;5.20;99.90
22145;DHT22;11238;48.730;11.566;2022-11-20T07:27:08;5.20;99.90
22145;DHT22;11238;48.730;11.566;2022-11-20T07:29:34;5.10;99.90
22145;DHT22;11238;48.730;11.566;2022-11-20T07:32:00;5.10;99.90
22145;DHT22;11238;48.730;11.566;2022-11-20T07:34:26;5.10;99.90
22145;DHT22;11238;48.730;11.566;2022-11-20T07:36:52;5.10;99.90
22145;DHT22;11238;48.730;11.566;2022-11-20T07:39:18;5.10;99.90
22145;DHT22;11238;48.730;11.566;2022-11-20T07:41:43;5.10;99.90
22145;DHT22;11238;48.730;11.566;2022-11-20T07:44:09;5.10;99.90
22145;DHT22;11238;48.730;11.566;2022-11-20T07:46:35;5.10;99.90
22145;DHT22;11238;48.730;11.566;2022-11-20T07:49:01;5.10;99.90
22145;DHT22;11238;48.730;11.566;2022-11-20T07:51:27;5.10;99.90
22145;DHT22;11238;48.730;11.566;2022-11-20T07:53:53;5.10;99.90
22145;DHT22;11238;48.730;11.566;2022-11-20T07:56:19;5.10;99.90
22145;DHT22;11238;48.730;11.566;2022-11-20T07:58:44;5.10;99.90
22145;DHT22;11238;48.730;11.566;2022-11-20T08:01:11;5.10;99.90
22145;DHT22;11238;48.730;11.566;2022-11-20T08:03:37;5.10;99.90
22145;DHT22;11238;48.730;11.566;2022-11-20T08:06:03;5.20;99.90
22145;DHT22;11238;48.730;11.566;2022-11-20T08:08:29;5.10;99.90
22145;DHT22;11238;48.730;11.566;2022-11-20T08:10:58;5.10;99.90
22145;DHT22;11238;48.730;11.566;2022-11-20T08:13:43;5.20;99.90
22145;DHT22;11238;48.730;11.566;2022-11-20T08:16:28;5.20;99.90
22145;DHT22;11238;48.730;11.566;2022-11-20T08:18:54;5.20;99.90
22145;DHT22;11238;48.730;11.566;2022-11-20T08:21:20;5.20;99.90
22145;DHT22;11238;48.730;11.566;2022-11-20T08:23:46;5.20;99.90
22145;DHT22;11238;48.730;11.566;2022-11-20T08:26:11;5.20;99.90
22145;DHT22;11238;48.730;11.566;2022-11-20T08:28:37;5.30;99.90
22145;DHT22;11238;48.730;11.566;2022-11-20T08:31:03;5.30;99.90
22145;DHT22;11238;48.730;11.566;2022-11-20T08:33:29;5.30;99.90
22145;DHT22;11238;48.730;11.566;2022-11-20T08:36:00;5.30;99.90
22145;DHT22;11238;48.730;11.566;2022-11-20T08:38:26;5.30;99.90
22145;DHT22;11238;48.730;11.566;2022-11-20T08:40:55;5.30;99.90
22145;DHT22;11238;48.730;11.566;2022-11-20T08:43:40;5.30;99.90
22145;DHT22;11238;48.730;11.566;2022-11-20T08:46:06;5.30;99.90
22145;DHT22;11238;48.730;11.566;2022-11-20T08:48:39;5.30;99.90
22145;DHT22;11238;48.730;11.566;2022-11-20T08:51:05;5.40;99.90
22145;DHT22;11238;48.730;11.566;2022-11-20T08:53:31;5.40;99.90
22145;DHT22;11238;48.730;11.566;2022-11-20T08:55:57;5.50;99.90
22145;DHT22;11238;48.730;11.566;2022-11-20T08:58:29;5.60;99.90
22145;DHT22;11238;48.730;11.566;2022-11-20T09:00:55;5.60;99.90
22145;DHT22;11238;48.730;11.566;2022-11-20T09:03:21;5.60;99.90
22145;DHT22;11238;48.730;11.566;2022-11-20T09:05:47;5.70;99.90
22145;DHT22;11238;48.730;11.566;2022-11-20T09:08:13;5.70;99.90
22145;DHT22;11238;48.730;11.566;2022-11-20T09:10:39;5.70;99.90
22145;DHT22;11238;48.730;11.566;2022-11-20T09:13:07;5.80;99.90
22145;DHT22;11238;48.730;11.566;2022-11-20T09:15:36;5.80;99.90
22145;DHT22;11238;48.730;11.566;2022-11-20T09:18:02;5.80;99.90
22145;DHT22;11238;48.730;11.566;2022-11-20T09:20:30;5.80;99.90
22145;DHT22;11238;48.730;11.566;2022-11-20T09:22:57;5.80;99.90
22145;DHT22;11238;48.730;11.566;2022-11-20T09:25:23;5.90;99.90
22145;DHT22;11238;48.730;11.566;2022-11-20T09:27:58;6.00;99.90
22145;DHT22;11238;48.730;11.566;2022-11-20T09:30:25;6.00;99.90
22145;DHT22;11238;48.730;11.566;2022-11-20T09:32:50;5.90;99.90
22145;DHT22;11238;48.730;11.566;2022-11-20T09:35:17;5.90;99.90
22145;DHT22;11238;48.730;11.566;2022-11-20T09:37:43;5.90;99.90
22145;DHT22;11238;48.730;11.566;2022-11-20T09:40:26;5.90;99.90
22145;DHT22;11238;48.730;11.566;2022-11-20T09:43:13;6.00;99.90
22145;DHT22;11238;48.730;11.566;2022-11-20T09:46:03;5.90;99.90
22145;DHT22;11238;48.730;11.566;2022-11-20T09:48:55;6.00;99.90
22145;DHT22;11238;48.730;11.566;2022-11-20T09:52:07;6.00;99.90
22145;DHT22;11238;48.730;11.566;2022-11-20T09:54:38;6.00;99.90
22145;DHT22;11238;48.730;11.566;2022-11-20T09:57:19;6.10;99.90
22145;DHT22;11238;48.730;11.566;2022-11-20T10:00:08;6.10;99.90
22145;DHT22;11238;48.730;11.566;2022-11-20T10:02:56;6.10;99.90
22145;DHT22;11238;48.730;11.566;2022-11-20T10:05:31;6.10;99.90
22145;DHT22;11238;48.730;11.566;2022-11-20T10:08:25;6.20;99.90
22145;DHT22;11238;48.730;11.566;2022-11-20T10:14:13;6.20;99.90
22145;DHT22;11238;48.730;11.566;2022-11-20T10:19:33;6.20;99.90
22145;DHT22;11238;48.730;11.566;2022-11-20T10:25:15;6.30;99.90
22145;DHT22;11238;48.730;11.566;2022-11-20T10:28:34;6.30;99.90
22145;DHT22;11238;48.730;11.566;2022-11-20T10:34:23;6.40;99.90
22145;DHT22;11238;48.730;11.566;2022-11-20T10:37:24;6.40;99.90
22145;DHT22;11238;48.730;11.566;2022-11-20T10:42:34;6.40;99.90
22145;DHT22;11238;48.730;11.566;2022-11-20T10:45:32;6.50;99.90
22145;DHT22;11238;48.730;11.566;2022-11-20T10:48:25;6.50;99.90
22145;DHT22;11238;48.730;11.566;2022-11-20T10:51:45;6.50;99.90
22145;DHT22;11238;48.730;11.566;2022-11-20T10:54:15;6.50;99.90
22145;DHT22;11238;48.730;11.566;2022-11-20T10:56:50;6.50;99.90
22145;DHT22;11238;48.730;11.566;2022-11-20T10:59:47;6.50;99.90
22145;DHT22;11238;48.730;11.566;2022-11-20T11:05:08;6.50;99.90
22145;DHT22;11238;48.730;11.566;2022-11-20T11:07:40;6.50;99.90
22145;DHT22;11238;48.730;11.566;2022-11-20T11:10:18;6.50;99.90
22145;DHT22;11238;48.730;11.566;2022-11-20T11:12:46;6.50;99.90
22145;DHT22;11238;48.730;11.566;2022-11-20T11:18:44;6.50;99.90
22145;DHT22;11238;48.730;11.566;2022-11-20T11:21:10;6.60;99.90
22145;DHT22;11238;48.730;11.566;2022-11-20T11:23:38;6.60;99.90
22145;DHT22;11238;48.730;11.566;2022-11-20T11:26:06;6.70;99.90
22145;DHT22;11238;48.730;11.566;2022-11-20T11:28:33;6.80;99.90
22145;DHT22;11238;48.730;11.566;2022-11-20T11:30:59;6.90;99.90
22145;DHT22;11238;48.730;11.566;2022-11-20T11:33:27;6.90;99.90
22145;DHT22;11238;48.730;11.566;2022-11-20T11:36:01;6.90;99.90
22145;DHT22;11238;48.730;11.566;2022-11-20T11:38:39;6.90;99.90
22145;DHT22;11238;48.730;11.566;2022-11-20T11:41:12;6.80;99.90
22145;DHT22;11238;48.730;11.566;2022-11-20T11:43:39;6.70;99.90
22145;DHT22;11238;48.730;11.566;2022-11-20T11:46:30;6.50;99.90
22145;DHT22;11238;48.730;11.566;2022-11-20T11:49:14;6.50;99.90
22145;DHT22;11238;48.730;11.566;2022-11-20T11:54:35;6.40;99.90
22145;DHT22;11238;48.730;11.566;2022-11-20T11:57:10;6.30;99.90
22145;DHT22;11238;48.730;11.566;2022-11-20T12:05:07;6.20;99.90
22145;DHT22;11238;48.730;11.566;2022-11-20T12:08:17;6.30;99.90
22145;DHT22;11238;48.730;11.566;2022-11-20T12:10:45;6.30;99.90
22145;DHT22;11238;48.730;11.566;2022-11-20T12:13:20;6.40;99.90
22145;DHT22;11238;48.730;11.566;2022-11-20T12:15:48;6.40;99.90
22145;DHT22;11238;48.730;11.566;2022-11-20T12:18:22;6.40;99.90
22145;DHT22;11238;48.730;11.566;2022-11-20T12:21:01;6.50;99.90
22145;DHT22;11238;48.730;11.566;2022-11-20T12:29:26;6.50;99.90
22145;DHT22;11238;48.730;11.566;2022-11-20T12:32:33;6.50;99.90
22145;DHT22;11238;48.730;11.566;2022-11-20T12:43:22;6.70;99.90
22145;DHT22;11238;48.730;11.566;2022-11-20T12:46:46;6.70;99.90
22145;DHT22;11238;48.730;11.566;2022-11-20T12:49:27;6.80;99.90
22145;DHT22;11238;48.730;11.566;2022-11-20T12:52:13;6.90;99.90
22145;DHT22;11238;48.730;11.566;2022-11-20T12:55:03;6.90;99.90
22145;DHT22;11238;48.730;11.566;2022-11-20T12:57:41;7.00;99.90
22145;DHT22;11238;48.730;11.566;2022-11-20T13:00:19;7.00;99.90
22145;DHT22;11238;48.730;11.566;2022-11-20T13:06:10;7.00;99.90
22145;DHT22;11238;48.730;11.566;2022-11-20T13:08:39;7.00;99.90
22145;DHT22;11238;48.730;11.566;2022-11-20T13:11:21;7.00;99.90
22145;DHT22;11238;48.730;11.566;2022-11-20T13:14:32;7.00;99.90
22145;DHT22;11238;48.730;11.566;2022-11-20T13:17:04;7.00;99.90
22145;DHT22;11238;48.730;11.566;2022-11-20T13:19:32;7.00;99.90
22145;DHT22;11238;48.730;11.566;2022-11-20T13:21:58;7.00;99.90
22145;DHT22;11238;48.730;11.566;2022-11-20T13:24:26;7.00;99.90
22145;DHT22;11238;48.730;11.566;2022-11-20T13:27:23;7.00;99.90
22145;DHT22;11238;48.730;11.566;2022-11-20T13:30:13;6.90;99.90
22145;DHT22;11238;48.730;11.566;2022-11-20T13:32:52;6.90;99.90
22145;DHT22;11238;48.730;11.566;2022-11-20T13:38:15;6.90;99.90
22145;DHT22;11238;48.730;11.566;2022-11-20T13:40:51;6.90;99.90
22145;DHT22;11238;48.730;11.566;2022-11-20T13:45:58;6.90;99.90
22145;DHT22;11238;48.730;11.566;2022-11-20T13:48:26;6.90;99.90
22145;DHT22;11238;48.730;11.566;2022-11-20T13:51:16;6.80;99.90
22145;DHT22;11238;48.730;11.566;2022-11-20T14:02:17;6.70;99.90
22145;DHT22;11238;48.730;11.566;2022-11-20T14:04:50;6.70;99.90
22145;DHT22;11238;48.730;11.566;2022-11-20T14:07:18;6.70;99.90
22145;DHT22;11238;48.730;11.566;2022-11-20T14:09:55;6.70;99.90
22145;DHT22;11238;48.730;11.566;2022-11-20T14:12:30;6.70;99.90
22145;DHT22;11238;48.730;11.566;2022-11-20T14:14:58;6.70;99.90
22145;DHT22;11238;48.730;11.566;2022-11-20T14:17:30;6.60;99.90
22145;DHT22;11238;48.730;11.566;2022-11-20T14:20:03;6.60;99.90
22145;DHT22;11238;48.730;11.566;2022-11-20T14:22:29;6.60;99.90
22145;DHT22;11238;48.730;11.566;2022-11-20T14:27:43;6.60;99.90
22145;DHT22;11238;48.730;11.566;2022-11-20T14:30:17;6.60;99.90
22145;DHT22;11238;48.730;11.566;2022-11-20T14:32:45;6.60;99.90
22145;DHT22;11238;48.730;11.566;2022-11-20T14:35:35;6.60;99.90
22145;DHT22;11238;48.730;11.566;2022-11-20T14:38:03;6.60;99.90
22145;DHT22;11238;48.730;11.566;2022-11-20T14:40:31;6.60;99.90
22145;DHT22;11238;48.730;11.566;2022-11-20T14:42:58;6.60;99.90
22145;DHT22;11238;48.730;11.566;2022-11-20T14:45:25;6.60;99.90
22145;DHT22;11238;48.730;11.566;2022-11-20T14:47:53;6.60;99.90
22145;DHT22;11238;48.730;11.566;2022-11-20T14:50:26;6.60;99.90
22145;DHT22;11238;48.730;11.566;2022-11-20T14:52:57;6.60;99.90
22145;DHT22;11238;48.730;11.566;2022-11-20T14:58:04;6.60;99.90
22145;DHT22;11238;48.730;11.566;2022-11-20T15:00:32;6.50;99.90
22145;DHT22;11238;48.730;11.566;2022-11-20T15:02:58;6.50;99.90
22145;DHT22;11238;48.730;11.566;2022-11-20T15:05:37;6.60;99.90
22145;DHT22;11238;48.730;11.566;2022-11-20T15:08:10;6.50;99.90
22145;DHT22;11238;48.730;11.566;2022-11-20T15:10:36;6.50;99.90
22145;DHT22;11238;48.730;11.566;2022-11-20T15:13:31;6.40;99.90
22145;DHT22;11238;48.730;11.566;2022-11-20T15:16:00;6.40;99.90
22145;DHT22;11238;48.730;11.566;2022-11-20T15:18:32;6.40;99.90
22145;DHT22;11238;48.730;11.566;2022-11-20T15:21:06;6.30;99.90
22145;DHT22;11238;48.730;11.566;2022-11-20T15:23:35;6.10;99.90
22145;DHT22;11238;48.730;11.566;2022-11-20T15:26:04;6.10;99.90
22145;DHT22;11238;48.730;11.566;2022-11-20T15:28:33;6.20;99.90
22145;DHT22;11238;48.730;11.566;2022-11-20T15:31:00;6.10;99.90
22145;DHT22;11238;48.730;11.566;2022-11-20T15:33:29;6.10;99.90
22145;DHT22;11238;48.730;11.566;2022-11-20T15:35:55;6.10;99.90
22145;DHT22;11238;48.730;11.566;2022-11-20T15:38:21;6.10;99.90
22145;DHT22;11238;48.730;11.566;2022-11-20T15:40:47;6.10;99.90
22145;DHT22;11238;48.730;11.566;2022-11-20T15:43:13;6.10;99.90
22145;DHT22;11238;48.730;11.566;2022-11-20T15:45:51;6.10;99.90
22145;DHT22;11238;48.730;11.566;2022-11-20T15:50:58;6.20;99.90
22145;DHT22;11238;48.730;11.566;2022-11-20T15:53:25;6.20;99.90
22145;DHT22;11238;48.730;11.566;2022-11-20T15:55:51;6.20;99.90
22145;DHT22;11238;48.730;11.566;2022-11-20T15:58:17;6.20;99.90
22145;DHT22;11238;48.730;11.566;2022-11-20T16:00:43;6.30;99.90
22145;DHT22;11238;48.730;11.566;2022-11-20T16:03:14;6.30;99.90
22145;DHT22;11238;48.730;11.566;2022-11-20T16:05:40;6.30;99.90
22145;DHT22;11238;48.730;11.566;2022-11-20T16:08:06;6.30;99.90
22145;DHT22;11238;48.730;11.566;2022-11-20T16:10:33;6.30;99.90
22145;DHT22;11238;48.730;11.566;2022-11-20T16:12:59;6.40;99.90
22145;DHT22;11238;48.730;11.566;2022-11-20T16:15:46;6.40;99.90
22145;DHT22;11238;48.730;11.566;2022-11-20T16:18:20;6.40;99.90
22145;DHT22;11238;48.730;11.566;2022-11-20T16:20:48;6.40;99.90
22145;DHT22;11238;48.730;11.566;2022-11-20T16:23:15;6.40;99.90
22145;DHT22;11238;48.730;11.566;2022-11-20T16:25:42;6.40;99.90
22145;DHT22;11238;48.730;11.566;2022-11-20T16:28:08;6.40;99.90
22145;DHT22;11238;48.730;11.566;2022-11-20T16:30:34;6.40;99.90
22145;DHT22;11238;48.730;11.566;2022-11-20T16:33:01;6.30;99.90
22145;DHT22;11238;48.730;11.566;2022-11-20T16:35:29;6.30;99.90
22145;DHT22;11238;48.730;11.566;2022-11-20T16:37:57;6.30;99.90
22145;DHT22;11238;48.730;11.566;2022-11-20T16:40:24;6.30;99.90
22145;DHT22;11238;48.730;11.566;2022-11-20T16:42:51;6.30;99.90
22145;DHT22;11238;48.730;11.566;2022-11-20T16:45:17;6.30;99.90
22145;DHT22;11238;48.730;11.566;2022-11-20T16:47:43;6.30;99.90
22145;DHT22;11238;48.730;11.566;2022-11-20T16:50:09;6.20;99.90
22145;DHT22;11238;48.730;11.566;2022-11-20T16:52:35;6.20;99.90
22145;DHT22;11238;48.730;11.566;2022-11-20T16:55:01;6.20;99.90
22145;DHT22;11238;48.730;11.566;2022-11-20T16:57:28;6.10;99.90
22145;DHT22;11238;48.730;11.566;2022-11-20T16:59:54;6.20;99.90
22145;DHT22;11238;48.730;11.566;2022-11-20T17:02:21;6.20;99.90
22145;DHT22;11238;48.730;11.566;2022-11-20T17:04:46;6.20;99.90
22145;DHT22;11238;48.730;11.566;2022-11-20T17:07:12;6.20;99.90
22145;DHT22;11238;48.730;11.566;2022-11-20T17:09:38;6.20;99.90
22145;DHT22;11238;48.730;11.566;2022-11-20T17:12:04;6.20;99.90
22145;DHT22;11238;48.730;11.566;2022-11-20T17:14:31;6.20;99.90
22145;DHT22;11238;48.730;11.566;2022-11-20T17:16:56;6.20;99.90
22145;DHT22;11238;48.730;11.566;2022-11-20T17:19:22;6.10;99.90
22145;DHT22;11238;48.730;11.566;2022-11-20T17:21:48;6.00;99.90
22145;DHT22;11238;48.730;11.566;2022-11-20T17:24:14;6.00;99.90
22145;DHT22;11238;48.730;11.566;2022-11-20T17:26:42;5.90;99.90
22145;DHT22;11238;48.730;11.566;2022-11-20T17:29:18;5.90;99.90
22145;DHT22;11238;48.730;11.566;2022-11-20T17:31:45;5.80;99.90
22145;DHT22;11238;48.730;11.566;2022-11-20T17:34:14;5.80;99.90
22145;DHT22;11238;48.730;11.566;2022-11-20T17:36:41;5.80;99.90
22145;DHT22;11238;48.730;11.566;2022-11-20T17:39:10;5.80;99.90
22145;DHT22;11238;48.730;11.566;2022-11-20T17:41:36;5.80;99.90
22145;DHT22;11238;48.730;11.566;2022-11-20T17:44:02;5.80;99.90